createdAt,value
2022-09-21T00:02:02.507Z,13.38
2022-09-21T00:05:08.155Z,13.25
2022-09-21T00:08:16.153Z,13.22
2022-09-21T00:11:22.077Z,13.21
2022-09-21T00:14:27.868Z,13.15
2022-09-21T00:17:34.215Z,13.16
2022-09-21T00:20:40.731Z,13.30
2022-09-21T00:23:46.181Z,13.25
2022-09-21T00:26:52.696Z,13.19
2022-09-21T00:29:58.499Z,13.12
2022-09-21T00:33:04.170Z,13.05
2022-09-21T00:36:09.671Z,12.98
2022-09-21T00:39:17.218Z,12.94
2022-09-21T00:42:27.216Z,12.81
2022-09-21T00:45:34.061Z,12.64
2022-09-21T00:48:40.771Z,12.52
2022-09-21T00:51:46.035Z,12.44
2022-09-21T00:55:07.524Z,12.37
2022-09-21T00:58:19.576Z,12.44
2022-09-21T01:01:26.288Z,12.38
2022-09-21T01:04:33.721Z,12.34
2022-09-21T01:07:42.144Z,12.41
2022-09-21T01:11:21.540Z,12.49
2022-09-21T01:14:53.894Z,12.37
2022-09-21T01:18:37.431Z,12.36
2022-09-21T01:21:48.927Z,12.31
2022-09-21T01:25:32.322Z,12.34
2022-09-21T01:29:04.815Z,12.31
2022-09-21T01:32:22.776Z,12.22
2022-09-21T01:35:40.385Z,12.00
2022-09-21T01:38:56.799Z,11.98
2022-09-21T01:42:04.634Z,11.88
2022-09-21T01:45:13.365Z,11.72
2022-09-21T01:48:19.802Z,11.64
2022-09-21T01:51:26.472Z,11.55
2022-09-21T01:54:40.899Z,11.47
2022-09-21T01:58:01.266Z,11.41
2022-09-21T02:01:09.977Z,11.47
2022-09-21T02:04:20.179Z,11.43
2022-09-21T02:07:26.070Z,11.34
2022-09-21T02:10:49.363Z,11.31
2022-09-21T02:13:59.554Z,11.19
2022-09-21T02:17:34.775Z,11.15
2022-09-21T02:20:48.015Z,11.16
2022-09-21T02:23:55.922Z,11.05
2022-09-21T02:27:03.167Z,10.97
2022-09-21T02:30:11.713Z,10.99
2022-09-21T02:33:26.023Z,10.96
2022-09-21T02:36:42.547Z,10.86
2022-09-21T02:40:04.184Z,10.87
2022-09-21T02:43:19.294Z,10.82
2022-09-21T02:46:44.078Z,10.92
2022-09-21T02:49:58.499Z,10.97
2022-09-21T02:53:04.108Z,11.01
2022-09-21T02:56:14.056Z,10.79
2022-09-21T02:59:20.845Z,10.83
2022-09-21T03:02:26.763Z,10.83
2022-09-21T03:05:33.195Z,10.71
2022-09-21T03:08:39.498Z,10.61
2022-09-21T03:11:47.938Z,10.51
2022-09-21T03:14:54.721Z,10.63
2022-09-21T03:18:00.585Z,10.71
2022-09-21T03:21:00.595Z,10.75
2022-09-21T03:24:05.590Z,10.73
2022-09-21T03:27:10.677Z,10.82
2022-09-21T03:30:17.083Z,10.84
2022-09-21T03:33:23.766Z,10.93
2022-09-21T03:36:29.855Z,10.93
2022-09-21T03:39:35.842Z,10.87
2022-09-21T03:42:42.250Z,10.94
2022-09-21T03:45:51.461Z,11.04
2022-09-21T03:48:56.717Z,11.17
2022-09-21T03:51:56.324Z,11.38
2022-09-21T03:55:03.074Z,11.51
2022-09-21T03:58:08.903Z,11.73
2022-09-21T04:01:18.685Z,11.83
2022-09-21T04:04:24.396Z,11.92
2022-09-21T04:07:30.673Z,11.98
2022-09-21T04:10:38.428Z,12.14
2022-09-21T04:13:44.161Z,12.14
2022-09-21T04:16:50.377Z,12.17
2022-09-21T04:19:56.691Z,12.30
2022-09-21T04:23:02.486Z,12.34
2022-09-21T04:26:09.537Z,12.41
2022-09-21T04:29:15.401Z,12.50
2022-09-21T04:32:21.265Z,12.63
2022-09-21T04:35:20.468Z,12.57
2022-09-21T04:38:25.606Z,12.69
2022-09-21T04:41:31.060Z,12.89
2022-09-21T04:44:37.516Z,13.03
2022-09-21T04:47:46.076Z,13.12
2022-09-21T04:50:53.874Z,13.32
2022-09-21T04:53:59.209Z,13.48
2022-09-21T04:57:04.975Z,13.67
2022-09-21T05:00:11.761Z,13.76
2022-09-21T05:03:17.461Z,13.63
2022-09-21T05:06:22.832Z,13.71
2022-09-21T05:09:45.669Z,13.72
2022-09-21T05:12:50.768Z,13.81
2022-09-21T05:15:56.501Z,13.88
2022-09-21T05:19:05.805Z,14.10
2022-09-21T05:22:11.412Z,14.33
2022-09-21T05:25:18.169Z,14.51
2022-09-21T05:28:24.641Z,14.74
2022-09-21T05:31:38.209Z,14.81
2022-09-21T05:34:54.284Z,14.87
2022-09-21T05:38:08.474Z,14.98
2022-09-21T05:41:14.244Z,15.05
2022-09-21T05:44:19.519Z,15.17
2022-09-21T05:47:56.611Z,15.32
2022-09-21T05:51:18.652Z,15.42
2022-09-21T05:54:49.624Z,15.57
2022-09-21T05:58:16.124Z,15.68
2022-09-21T06:01:35.407Z,15.76
2022-09-21T06:04:40.261Z,15.88
2022-09-21T06:07:46.286Z,15.91
2022-09-21T06:10:59.865Z,16.03
2022-09-21T06:14:07.537Z,16.02
2022-09-21T06:17:18.041Z,16.09
2022-09-21T06:20:26.585Z,16.16
2022-09-21T06:23:36.940Z,16.31
2022-09-21T06:26:44.422Z,16.39
2022-09-21T06:29:50.947Z,16.72
2022-09-21T06:32:56.902Z,16.74
2022-09-21T06:36:11.088Z,16.71
2022-09-21T06:39:19.769Z,16.86
2022-09-21T06:42:25.732Z,16.83
2022-09-21T06:45:32.067Z,16.86
2022-09-21T06:48:37.879Z,17.08
2022-09-21T06:51:43.919Z,17.05
2022-09-21T06:54:51.957Z,17.35
2022-09-21T06:57:58.357Z,17.35
2022-09-21T07:01:04.373Z,17.43
2022-09-21T07:04:16.073Z,17.46
2022-09-21T07:07:21.359Z,17.83
2022-09-21T07:10:30.051Z,17.92
2022-09-21T07:13:37.534Z,18.14
2022-09-21T07:16:44.648Z,18.32
2022-09-21T07:19:49.969Z,18.43
2022-09-21T07:22:55.900Z,18.53
2022-09-21T07:26:03.062Z,18.63
2022-09-21T07:29:10.981Z,18.70
2022-09-21T07:32:16.847Z,18.96
2022-09-21T07:35:21.685Z,19.13
2022-09-21T07:38:28.199Z,19.01
2022-09-21T07:41:38.875Z,19.24
2022-09-21T07:44:46.841Z,19.16
2022-09-21T07:47:52.808Z,19.25
2022-09-21T07:50:59.149Z,19.26
2022-09-21T07:54:10.299Z,19.11
2022-09-21T07:57:33.677Z,19.19
2022-09-21T08:00:41.335Z,19.49
2022-09-21T08:03:43.053Z,19.63
2022-09-21T08:06:35.359Z,19.88
2022-09-21T08:09:39.965Z,20.06
2022-09-21T08:12:46.152Z,20.24
2022-09-21T08:15:51.581Z,20.29
2022-09-21T08:18:57.505Z,20.11
2022-09-21T08:22:06.223Z,19.78
2022-09-21T08:25:11.694Z,19.78
2022-09-21T08:28:16.326Z,19.51
2022-09-21T08:31:25.302Z,19.32
2022-09-21T08:34:31.396Z,19.24
2022-09-21T08:37:38.924Z,19.03
2022-09-21T08:40:45.687Z,19.02
2022-09-21T08:44:09.071Z,19.19
2022-09-21T08:47:28.071Z,19.18
2022-09-21T08:50:46.944Z,19.22
2022-09-21T08:53:59.792Z,19.07
2022-09-21T08:57:06.502Z,18.89
2022-09-21T09:00:12.431Z,18.75
2022-09-21T09:03:41.833Z,19.05
2022-09-21T09:07:23.685Z,19.14
2022-09-21T09:11:02.154Z,19.21
2022-09-21T09:14:30.722Z,19.12
2022-09-21T09:18:01.222Z,19.10
2022-09-21T09:21:07.887Z,19.13
2022-09-21T09:24:22.283Z,19.45
2022-09-21T09:27:53.227Z,19.59
2022-09-21T09:30:59.241Z,19.79
2022-09-21T09:34:38.975Z,20.07
2022-09-21T09:37:48.106Z,20.27
2022-09-21T09:41:09.524Z,20.58
2022-09-21T09:44:28.027Z,20.84
2022-09-21T09:48:13.207Z,21.05
2022-09-21T09:51:18.141Z,21.37
2022-09-21T09:54:30.345Z,21.37
2022-09-21T09:57:42.980Z,21.32
2022-09-21T10:00:47.706Z,21.31
2022-09-21T10:03:55.169Z,21.19
2022-09-21T10:07:00.909Z,21.13
2022-09-21T10:10:07.743Z,21.13
2022-09-21T10:13:27.393Z,20.97
2022-09-21T10:16:38.911Z,20.89
2022-09-21T10:19:45.025Z,20.85
2022-09-21T10:22:51.639Z,20.98
2022-09-21T10:25:57.130Z,21.09
2022-09-21T10:29:15.868Z,21.14
2022-09-21T10:32:32.793Z,21.16
2022-09-21T10:35:39.938Z,21.13
2022-09-21T10:38:46.388Z,21.03
2022-09-21T10:41:52.381Z,21.00
2022-09-21T10:45:10.130Z,21.08
2022-09-21T10:48:24.472Z,21.11
2022-09-21T10:51:46.004Z,21.12
2022-09-21T10:54:51.857Z,21.10
2022-09-21T10:57:57.406Z,21.08
2022-09-21T11:01:04.300Z,21.05
2022-09-21T11:04:19.524Z,21.01
2022-09-21T11:07:32.385Z,20.96
2022-09-21T11:10:48.826Z,20.92
2022-09-21T11:14:08.633Z,21.00
2022-09-21T11:17:20.895Z,21.12
2022-09-21T11:20:52.623Z,21.32
2022-09-21T11:24:39.876Z,21.39
2022-09-21T11:27:56.006Z,21.58
2022-09-21T11:31:16.024Z,21.69
2022-09-21T11:35:09.460Z,21.90
2022-09-21T11:38:50.158Z,21.97
2022-09-21T11:42:38.106Z,21.87
2022-09-21T11:46:06.778Z,21.78
2022-09-21T11:49:41.603Z,21.93
2022-09-21T11:53:04.171Z,21.98
2022-09-21T11:56:40.476Z,21.84
2022-09-21T12:00:01.302Z,21.54
2022-09-21T12:03:34.157Z,21.38
2022-09-21T12:07:02.505Z,21.22
2022-09-21T12:10:48.439Z,21.30
2022-09-21T12:14:22.239Z,20.91
2022-09-21T12:18:03.767Z,20.91
2022-09-21T12:21:43.561Z,20.84
2022-09-21T12:24:57.318Z,20.75
2022-09-21T12:28:18.464Z,20.68
2022-09-21T12:31:55.808Z,20.77
2022-09-21T12:35:08.558Z,20.77
2022-09-21T12:38:39.763Z,20.71
2022-09-21T12:42:00.452Z,20.70
2022-09-21T12:45:12.991Z,20.66
2022-09-21T12:48:34.899Z,20.71
2022-09-21T12:51:52.199Z,20.65
2022-09-21T12:55:35.240Z,20.71
2022-09-21T12:59:01.658Z,20.86
2022-09-21T13:02:47.318Z,20.86
2022-09-21T13:06:01.103Z,20.78
2022-09-21T13:09:03.348Z,20.79
2022-09-21T13:12:15.287Z,20.72
2022-09-21T13:15:29.392Z,20.61
2022-09-21T13:18:53.423Z,20.52
2022-09-21T13:21:59.969Z,20.36
2022-09-21T13:25:19.745Z,20.32
2022-09-21T13:28:30.048Z,20.43
2022-09-21T13:31:40.908Z,20.52
2022-09-21T13:34:49.870Z,20.53
2022-09-21T13:37:55.378Z,20.48
2022-09-21T13:41:14.165Z,20.49
2022-09-21T13:44:23.461Z,20.46
2022-09-21T13:47:28.856Z,20.43
2022-09-21T13:50:56.214Z,20.41
2022-09-21T13:54:01.552Z,20.32
2022-09-21T13:57:36.682Z,20.29
2022-09-21T14:01:09.936Z,20.27
2022-09-21T14:04:18.646Z,20.29
2022-09-21T14:07:23.313Z,20.27
2022-09-21T14:10:36.033Z,20.22
2022-09-21T14:13:51.219Z,20.05
2022-09-21T14:17:05.345Z,19.94
2022-09-21T14:20:14.712Z,20.01
2022-09-21T14:23:37.873Z,19.93
2022-09-21T14:27:02.201Z,19.90
2022-09-21T14:30:20.214Z,19.95
2022-09-21T14:33:46.226Z,19.93
2022-09-21T14:36:58.036Z,19.84
2022-09-21T14:40:03.846Z,19.79
2022-09-21T14:43:10.879Z,19.68
2022-09-21T14:46:47.671Z,19.64
2022-09-21T14:50:19.221Z,19.53
2022-09-21T14:53:34.772Z,19.40
2022-09-21T14:57:15.347Z,19.28
2022-09-21T15:00:38.786Z,19.20
2022-09-21T15:04:06.393Z,19.11
2022-09-21T15:07:56.510Z,19.00
2022-09-21T15:11:43.456Z,18.99
2022-09-21T15:14:49.852Z,18.86
2022-09-21T15:18:11.305Z,18.85
2022-09-21T15:21:17.699Z,18.77
2022-09-21T15:24:46.670Z,18.57
2022-09-21T15:27:53.383Z,18.51
2022-09-21T15:31:00.577Z,18.32
2022-09-21T15:34:06.670Z,18.30
2022-09-21T15:37:25.541Z,18.19
2022-09-21T15:44:03.995Z,18.07
2022-09-21T15:47:11.303Z,17.90
2022-09-21T15:50:17.224Z,17.72
2022-09-21T15:53:35.856Z,17.58
2022-09-21T15:56:47.484Z,17.34
2022-09-21T15:59:54.743Z,17.18
2022-09-21T16:03:12.374Z,17.04
2022-09-21T16:06:37.400Z,16.89
2022-09-21T16:09:54.051Z,16.76
2022-09-21T16:12:59.540Z,16.58
2022-09-21T16:16:20.272Z,16.39
2022-09-21T16:19:25.525Z,16.26
2022-09-21T16:22:34.468Z,16.09
2022-09-21T16:25:44.389Z,16.03
2022-09-21T16:28:54.736Z,15.95
2022-09-21T16:32:01.591Z,15.85
2022-09-21T16:35:08.102Z,15.70
2022-09-21T16:38:18.552Z,15.54
2022-09-21T16:41:24.681Z,15.53
2022-09-21T16:44:39.743Z,15.42
2022-09-21T16:47:46.590Z,15.33
2022-09-21T16:50:53.313Z,15.28
2022-09-21T16:53:58.912Z,15.24
2022-09-21T16:57:04.824Z,15.09
2022-09-21T17:00:10.649Z,14.95
2022-09-21T17:03:18.005Z,14.89
2022-09-21T17:06:32.479Z,14.85
2022-09-21T17:09:44.612Z,14.76
2022-09-21T17:12:51.364Z,14.65
2022-09-21T17:16:00.938Z,14.60
2022-09-21T17:19:07.101Z,14.62
2022-09-21T17:22:14.241Z,14.70
2022-09-21T17:25:20.661Z,14.67
2022-09-21T17:28:32.704Z,14.58
2022-09-21T17:31:38.381Z,14.63
2022-09-21T17:34:44.910Z,14.60
2022-09-21T17:37:51.159Z,14.66
2022-09-21T17:40:57.052Z,14.75
2022-09-21T17:44:30.403Z,14.71
2022-09-21T17:47:41.914Z,14.55
2022-09-21T17:50:47.765Z,14.32
2022-09-21T17:53:53.606Z,14.23
2022-09-21T17:57:12.307Z,14.24
2022-09-21T18:00:26.615Z,14.21
2022-09-21T18:03:42.691Z,14.11
2022-09-21T18:06:42.437Z,14.07
2022-09-21T18:09:51.204Z,14.02
2022-09-21T18:13:13.804Z,13.93
2022-09-21T18:16:34.080Z,13.84
2022-09-21T18:20:02.074Z,13.75
2022-09-21T18:23:28.274Z,13.71
2022-09-21T18:26:33.913Z,13.65
2022-09-21T18:29:46.882Z,13.63
2022-09-21T18:33:18.080Z,13.59
2022-09-21T18:36:34.957Z,13.52
2022-09-21T18:40:04.162Z,13.53
2022-09-21T18:43:20.668Z,13.46
2022-09-21T18:46:38.125Z,13.37
2022-09-21T18:50:13.889Z,13.35
2022-09-21T18:53:30.177Z,13.08
2022-09-21T18:56:50.175Z,13.04
2022-09-21T18:59:55.462Z,13.03
2022-09-21T19:03:18.071Z,12.98
2022-09-21T19:06:31.991Z,12.97
2022-09-21T19:10:13.791Z,12.95
2022-09-21T19:13:59.914Z,12.94
2022-09-21T19:17:11.421Z,12.83
2022-09-21T19:20:47.503Z,12.76
2022-09-21T19:24:21.020Z,12.77
2022-09-21T19:27:34.926Z,12.79
2022-09-21T19:30:39.567Z,12.85
2022-09-21T19:33:51.420Z,12.82
2022-09-21T19:36:55.781Z,12.77
2022-09-21T19:40:03.035Z,12.72
2022-09-21T19:43:37.234Z,12.66
2022-09-21T19:47:03.103Z,12.57
2022-09-21T19:50:09.192Z,12.64
2022-09-21T19:53:31.982Z,12.54
2022-09-21T19:56:55.389Z,12.51
2022-09-21T19:59:58.962Z,12.46
2022-09-21T20:03:28.069Z,12.33
2022-09-21T20:06:46.018Z,12.34
2022-09-21T20:09:56.347Z,12.28
2022-09-21T20:13:13.840Z,12.21
2022-09-21T20:16:38.297Z,12.26
2022-09-21T20:20:02.919Z,12.26
2022-09-21T20:23:08.730Z,12.17
2022-09-21T20:26:21.478Z,12.15
2022-09-21T20:29:28.775Z,12.12
2022-09-21T20:32:35.388Z,12.13
2022-09-21T20:35:43.719Z,12.11
2022-09-21T20:38:49.173Z,12.07
2022-09-21T20:41:56.359Z,12.05
2022-09-21T20:45:01.246Z,12.12
2022-09-21T20:48:09.984Z,12.16
2022-09-21T20:51:16.859Z,12.21
2022-09-21T20:54:23.715Z,12.22
2022-09-21T20:57:29.466Z,12.23
2022-09-21T21:00:35.134Z,12.31
2022-09-21T21:03:41.128Z,12.30
2022-09-21T21:06:47.952Z,12.31
2022-09-21T21:09:54.859Z,12.29
2022-09-21T21:13:00.493Z,12.22
2022-09-21T21:16:12.502Z,12.20
2022-09-21T21:19:19.507Z,11.95
2022-09-21T21:22:26.739Z,11.87
2022-09-21T21:25:32.691Z,11.83
2022-09-21T21:28:38.222Z,11.86
2022-09-21T21:31:43.370Z,11.83
2022-09-21T21:34:48.156Z,11.79
2022-09-21T21:37:53.639Z,11.77
2022-09-21T21:40:59.878Z,11.71
2022-09-21T21:44:06.660Z,11.58
2022-09-21T21:47:21.246Z,11.49
2022-09-21T21:50:06.584Z,11.58
2022-09-21T21:53:12.908Z,11.59
2022-09-21T21:56:29.711Z,11.58
2022-09-21T21:59:28.060Z,11.62
2022-09-21T22:02:21.721Z,11.69
2022-09-21T22:05:26.994Z,11.73
2022-09-21T22:08:35.332Z,11.84
2022-09-21T22:11:42.814Z,11.73
2022-09-21T22:14:48.666Z,11.72
2022-09-21T22:17:55.069Z,11.70
2022-09-21T22:21:00.443Z,11.61
2022-09-21T22:24:15.017Z,11.55
2022-09-21T22:27:20.081Z,11.51
2022-09-21T22:30:26.840Z,11.44
2022-09-21T22:33:33.249Z,11.51
2022-09-21T22:36:43.496Z,11.49
2022-09-21T22:39:50.057Z,11.37
2022-09-21T22:42:49.080Z,11.25
2022-09-21T22:45:35.774Z,11.28
2022-09-21T22:48:27.613Z,11.27
2022-09-21T22:51:35.825Z,11.29
2022-09-21T22:54:35.014Z,11.20
2022-09-21T22:57:21.813Z,11.16
2022-09-21T23:00:16.354Z,11.17
2022-09-21T23:03:09.989Z,11.21
2022-09-21T23:06:14.601Z,11.18
2022-09-21T23:09:23.910Z,11.10
2022-09-21T23:12:28.873Z,11.11
2022-09-21T23:15:33.888Z,11.11
2022-09-21T23:18:40.000Z,11.15
2022-09-21T23:21:45.760Z,11.22
2022-09-21T23:24:51.317Z,11.19
2022-09-21T23:27:57.532Z,11.05
2022-09-21T23:31:03.011Z,10.99
2022-09-21T23:34:10.207Z,10.96
2022-09-21T23:37:15.588Z,10.83
2022-09-21T23:40:21.149Z,10.75
2022-09-21T23:43:27.095Z,10.79
2022-09-21T23:46:37.900Z,10.71
2022-09-21T23:49:43.609Z,10.73
2022-09-21T23:52:48.880Z,10.80
2022-09-21T23:55:53.834Z,10.83
2022-09-21T23:58:59.315Z,10.94
